sensor_id;sensor_type;location;lat;lon;timestamp;temperature;humidity
2851;DHT22;1433;49.976;8.342;2024-02-15T00:02:22;10.10;99.90
2851;DHT22;1433;49.976;8.342;2024-02-15T00:04:48;10.10;99.90
2851;DHT22;1433;49.976;8.342;2024-02-15T00:07:14;10.10;99.90
2851;DHT22;1433;49.976;8.342;2024-02-15T00:09:40;10.40;99.90
2851;DHT22;1433;49.976;8.342;2024-02-15T00:12:05;10.20;99.90
2851;DHT22;1433;49.976;8.342;2024-02-15T00:14:31;10.20;99.90
2851;DHT22;1433;49.976;8.342;2024-02-15T00:16:57;10.30;99.90
2851;DHT22;1433;49.976;8.342;2024-02-15T00:19:23;10.50;99.90
2851;DHT22;1433;49.976;8.342;2024-02-15T00:21:49;10.50;99.90
2851;DHT22;1433;49.976;8.342;2024-02-15T00:24:15;10.40;99.90
2851;DHT22;1433;49.976;8.342;2024-02-15T00:26:41;10.30;99.90
2851;DHT22;1433;49.976;8.342;2024-02-15T00:29:10;10.20;99.90
2851;DHT22;1433;49.976;8.342;2024-02-15T00:31:36;10.20;99.90
2851;DHT22;1433;49.976;8.342;2024-02-15T00:34:01;10.20;99.90
2851;DHT22;1433;49.976;8.342;2024-02-15T00:36:30;10.20;99.90
2851;DHT22;1433;49.976;8.342;2024-02-15T00:38:55;10.10;99.90
2851;DHT22;1433;49.976;8.342;2024-02-15T00:41:21;10.10;99.90
2851;DHT22;1433;49.976;8.342;2024-02-15T00:43:47;10.20;99.90
2851;DHT22;1433;49.976;8.342;2024-02-15T00:46:13;10.10;99.90
2851;DHT22;1433;49.976;8.342;2024-02-15T00:48:39;10.10;99.90
2851;DHT22;1433;49.976;8.342;2024-02-15T00:51:06;10.10;99.90
2851;DHT22;1433;49.976;8.342;2024-02-15T00:53:32;10.10;99.90
2851;DHT22;1433;49.976;8.342;2024-02-15T00:55:58;10.30;99.90
2851;DHT22;1433;49.976;8.342;2024-02-15T00:58:24;10.20;99.90
2851;DHT22;1433;49.976;8.342;2024-02-15T01:00:50;10.20;99.90
2851;DHT22;1433;49.976;8.342;2024-02-15T01:03:16;10.20;99.90
2851;DHT22;1433;49.976;8.342;2024-02-15T01:05:42;10.20;99.90
2851;DHT22;1433;49.976;8.342;2024-02-15T01:08:07;10.20;99.90
2851;DHT22;1433;49.976;8.342;2024-02-15T01:10:34;10.30;99.90
2851;DHT22;1433;49.976;8.342;2024-02-15T01:13:00;10.30;99.90
2851;DHT22;1433;49.976;8.342;2024-02-15T01:15:26;10.20;99.90
2851;DHT22;1433;49.976;8.342;2024-02-15T01:17:52;10.20;99.90
2851;DHT22;1433;49.976;8.342;2024-02-15T01:20:17;10.30;99.90
2851;DHT22;1433;49.976;8.342;2024-02-15T01:22:43;10.30;99.90
2851;DHT22;1433;49.976;8.342;2024-02-15T01:25:10;10.30;99.90
2851;DHT22;1433;49.976;8.342;2024-02-15T01:27:36;10.40;99.90
2851;DHT22;1433;49.976;8.342;2024-02-15T01:30:02;10.30;99.90
2851;DHT22;1433;49.976;8.342;2024-02-15T01:32:29;10.30;99.90
2851;DHT22;1433;49.976;8.342;2024-02-15T01:34:56;10.60;99.90
2851;DHT22;1433;49.976;8.342;2024-02-15T01:37:22;10.40;99.90
2851;DHT22;1433;49.976;8.342;2024-02-15T01:39:48;10.50;99.90
2851;DHT22;1433;49.976;8.342;2024-02-15T01:42:14;10.50;99.90
2851;DHT22;1433;49.976;8.342;2024-02-15T01:44:40;10.40;99.90
2851;DHT22;1433;49.976;8.342;2024-02-15T01:47:10;10.40;99.90
2851;DHT22;1433;49.976;8.342;2024-02-15T01:49:36;10.20;99.90
2851;DHT22;1433;49.976;8.342;2024-02-15T01:52:04;10.40;99.90
2851;DHT22;1433;49.976;8.342;2024-02-15T01:54:32;10.40;99.90
2851;DHT22;1433;49.976;8.342;2024-02-15T01:56:58;10.40;99.90
2851;DHT22;1433;49.976;8.342;2024-02-15T01:59:25;10.40;99.90
2851;DHT22;1433;49.976;8.342;2024-02-15T02:01:51;10.30;99.90
2851;DHT22;1433;49.976;8.342;2024-02-15T02:04:17;10.30;99.90
2851;DHT22;1433;49.976;8.342;2024-02-15T02:06:42;10.30;99.90
2851;DHT22;1433;49.976;8.342;2024-02-15T02:09:11;10.30;99.90
2851;DHT22;1433;49.976;8.342;2024-02-15T02:11:44;10.50;99.90
2851;DHT22;1433;49.976;8.342;2024-02-15T02:14:10;10.20;99.90
2851;DHT22;1433;49.976;8.342;2024-02-15T02:16:37;10.20;99.90
2851;DHT22;1433;49.976;8.342;2024-02-15T02:19:05;10.20;99.90
2851;DHT22;1433;49.976;8.342;2024-02-15T02:21:35;10.30;99.90
2851;DHT22;1433;49.976;8.342;2024-02-15T02:24:08;10.50;99.90
2851;DHT22;1433;49.976;8.342;2024-02-15T02:26:36;10.30;99.90
2851;DHT22;1433;49.976;8.342;2024-02-15T02:29:02;10.50;99.90
2851;DHT22;1433;49.976;8.342;2024-02-15T02:31:36;10.30;99.90
2851;DHT22;1433;49.976;8.342;2024-02-15T02:34:02;10.30;99.90
2851;DHT22;1433;49.976;8.342;2024-02-15T02:36:29;10.30;99.90
2851;DHT22;1433;49.976;8.342;2024-02-15T02:38:55;10.30;99.90
2851;DHT22;1433;49.976;8.342;2024-02-15T02:41:26;10.30;99.90
2851;DHT22;1433;49.976;8.342;2024-02-15T02:43:52;10.60;99.90
2851;DHT22;1433;49.976;8.342;2024-02-15T02:46:18;10.30;99.90
2851;DHT22;1433;49.976;8.342;2024-02-15T02:48:43;10.30;99.90
2851;DHT22;1433;49.976;8.342;2024-02-15T02:51:09;10.40;99.90
2851;DHT22;1433;49.976;8.342;2024-02-15T02:53:35;10.40;99.90
2851;DHT22;1433;49.976;8.342;2024-02-15T02:56:01;10.40;99.90
2851;DHT22;1433;49.976;8.342;2024-02-15T02:58:27;10.40;99.90
2851;DHT22;1433;49.976;8.342;2024-02-15T03:00:54;10.30;99.90
2851;DHT22;1433;49.976;8.342;2024-02-15T03:03:20;10.40;99.90
2851;DHT22;1433;49.976;8.342;2024-02-15T03:05:48;10.40;99.90
2851;DHT22;1433;49.976;8.342;2024-02-15T03:08:14;10.30;99.90
2851;DHT22;1433;49.976;8.342;2024-02-15T03:10:43;10.20;99.90
2851;DHT22;1433;49.976;8.342;2024-02-15T03:13:08;10.20;99.90
2851;DHT22;1433;49.976;8.342;2024-02-15T03:15:35;10.10;99.90
2851;DHT22;1433;49.976;8.342;2024-02-15T03:18:01;10.00;99.90
2851;DHT22;1433;49.976;8.342;2024-02-15T03:20:32;10.00;99.90
2851;DHT22;1433;49.976;8.342;2024-02-15T03:23:00;9.90;99.90
2851;DHT22;1433;49.976;8.342;2024-02-15T03:25:27;9.90;99.90
2851;DHT22;1433;49.976;8.342;2024-02-15T03:27:58;9.80;99.90
2851;DHT22;1433;49.976;8.342;2024-02-15T03:30:27;9.80;99.90
2851;DHT22;1433;49.976;8.342;2024-02-15T03:32:56;9.80;99.90
2851;DHT22;1433;49.976;8.342;2024-02-15T03:35:25;9.80;99.90
2851;DHT22;1433;49.976;8.342;2024-02-15T03:37:52;9.80;99.90
2851;DHT22;1433;49.976;8.342;2024-02-15T03:40:19;9.80;99.90
2851;DHT22;1433;49.976;8.342;2024-02-15T03:42:45;9.70;99.90
2851;DHT22;1433;49.976;8.342;2024-02-15T03:45:12;9.90;99.90
2851;DHT22;1433;49.976;8.342;2024-02-15T03:47:38;9.60;99.90
2851;DHT22;1433;49.976;8.342;2024-02-15T03:50:04;9.60;99.90
2851;DHT22;1433;49.976;8.342;2024-02-15T03:52:31;9.60;99.90
2851;DHT22;1433;49.976;8.342;2024-02-15T03:54:57;9.60;99.90
2851;DHT22;1433;49.976;8.342;2024-02-15T03:57:24;9.60;99.90
2851;DHT22;1433;49.976;8.342;2024-02-15T03:59:49;9.60;99.90
2851;DHT22;1433;49.976;8.342;2024-02-15T04:02:20;9.80;99.90
2851;DHT22;1433;49.976;8.342;2024-02-15T04:04:46;9.80;99.90
2851;DHT22;1433;49.976;8.342;2024-02-15T04:07:15;9.60;99.90
2851;DHT22;1433;49.976;8.342;2024-02-15T04:09:45;9.60;99.90
2851;DHT22;1433;49.976;8.342;2024-02-15T04:12:11;9.60;99.90
2851;DHT22;1433;49.976;8.342;2024-02-15T04:14:38;9.60;99.90
2851;DHT22;1433;49.976;8.342;2024-02-15T04:17:04;9.60;99.90
2851;DHT22;1433;49.976;8.342;2024-02-15T04:19:31;9.60;99.90
2851;DHT22;1433;49.976;8.342;2024-02-15T04:21:57;9.60;99.90
2851;DHT22;1433;49.976;8.342;2024-02-15T04:24:22;9.60;99.90
2851;DHT22;1433;49.976;8.342;2024-02-15T04:26:49;9.60;99.90
2851;DHT22;1433;49.976;8.342;2024-02-15T04:29:15;9.60;99.90
2851;DHT22;1433;49.976;8.342;2024-02-15T04:31:41;9.60;99.90
2851;DHT22;1433;49.976;8.342;2024-02-15T04:34:08;9.70;99.90
2851;DHT22;1433;49.976;8.342;2024-02-15T04:36:37;9.90;99.90
2851;DHT22;1433;49.976;8.342;2024-02-15T04:39:02;9.90;99.90
2851;DHT22;1433;49.976;8.342;2024-02-15T04:41:29;9.70;99.90
2851;DHT22;1433;49.976;8.342;2024-02-15T04:43:55;9.80;99.90
2851;DHT22;1433;49.976;8.342;2024-02-15T04:46:22;9.80;99.90
2851;DHT22;1433;49.976;8.342;2024-02-15T04:48:48;9.80;99.90
2851;DHT22;1433;49.976;8.342;2024-02-15T04:51:17;9.80;99.90
2851;DHT22;1433;49.976;8.342;2024-02-15T04:53:45;9.80;99.90
2851;DHT22;1433;49.976;8.342;2024-02-15T04:56:14;9.80;99.90
2851;DHT22;1433;49.976;8.342;2024-02-15T04:58:42;9.90;99.90
2851;DHT22;1433;49.976;8.342;2024-02-15T05:01:14;9.80;99.90
2851;DHT22;1433;49.976;8.342;2024-02-15T05:03:44;9.90;99.90
2851;DHT22;1433;49.976;8.342;2024-02-15T05:06:10;9.90;99.90
2851;DHT22;1433;49.976;8.342;2024-02-15T05:08:39;9.90;99.90
2851;DHT22;1433;49.976;8.342;2024-02-15T05:11:11;10.20;99.90
2851;DHT22;1433;49.976;8.342;2024-02-15T05:13:46;9.90;99.90
2851;DHT22;1433;49.976;8.342;2024-02-15T05:16:12;9.90;99.90
2851;DHT22;1433;49.976;8.342;2024-02-15T05:18:38;9.80;99.90
2851;DHT22;1433;49.976;8.342;2024-02-15T05:21:06;9.90;99.90
2851;DHT22;1433;49.976;8.342;2024-02-15T05:23:38;10.00;99.90
2851;DHT22;1433;49.976;8.342;2024-02-15T05:26:05;9.90;99.90
2851;DHT22;1433;49.976;8.342;2024-02-15T05:28:32;9.90;99.90
2851;DHT22;1433;49.976;8.342;2024-02-15T05:31:15;10.20;99.90
2851;DHT22;1433;49.976;8.342;2024-02-15T05:33:49;9.90;99.90
2851;DHT22;1433;49.976;8.342;2024-02-15T05:36:17;9.90;99.90
2851;DHT22;1433;49.976;8.342;2024-02-15T05:38:47;9.90;99.90
2851;DHT22;1433;49.976;8.342;2024-02-15T05:41:13;9.90;99.90
2851;DHT22;1433;49.976;8.342;2024-02-15T05:43:39;10.00;99.90
2851;DHT22;1433;49.976;8.342;2024-02-15T05:46:07;10.00;99.90
2851;DHT22;1433;49.976;8.342;2024-02-15T05:48:34;10.20;99.90
2851;DHT22;1433;49.976;8.342;2024-02-15T05:51:01;10.00;99.90
2851;DHT22;1433;49.976;8.342;2024-02-15T05:53:27;10.00;99.90
2851;DHT22;1433;49.976;8.342;2024-02-15T05:55:54;10.10;99.90
2851;DHT22;1433;49.976;8.342;2024-02-15T05:58:20;10.00;99.90
2851;DHT22;1433;49.976;8.342;2024-02-15T06:00:46;10.10;99.90
2851;DHT22;1433;49.976;8.342;2024-02-15T06:03:16;10.10;99.90
2851;DHT22;1433;49.976;8.342;2024-02-15T06:05:42;10.10;99.90
2851;DHT22;1433;49.976;8.342;2024-02-15T06:08:09;10.10;99.90
2851;DHT22;1433;49.976;8.342;2024-02-15T06:10:38;10.20;99.90
2851;DHT22;1433;49.976;8.342;2024-02-15T06:13:04;10.20;99.90
2851;DHT22;1433;49.976;8.342;2024-02-15T06:15:30;10.00;99.90
2851;DHT22;1433;49.976;8.342;2024-02-15T06:17:55;10.00;99.90
2851;DHT22;1433;49.976;8.342;2024-02-15T06:20:22;10.00;99.90
2851;DHT22;1433;49.976;8.342;2024-02-15T06:22:48;10.20;99.90
2851;DHT22;1433;49.976;8.342;2024-02-15T06:25:14;9.90;99.90
2851;DHT22;1433;49.976;8.342;2024-02-15T06:27:46;9.90;99.90
2851;DHT22;1433;49.976;8.342;2024-02-15T06:30:14;10.00;99.90
2851;DHT22;1433;49.976;8.342;2024-02-15T06:32:59;10.00;99.90
2851;DHT22;1433;49.976;8.342;2024-02-15T06:35:43;10.00;99.90
2851;DHT22;1433;49.976;8.342;2024-02-15T06:38:28;10.10;99.90
2851;DHT22;1433;49.976;8.342;2024-02-15T06:41:13;10.10;99.90
2851;DHT22;1433;49.976;8.342;2024-02-15T06:43:39;10.20;99.90
2851;DHT22;1433;49.976;8.342;2024-02-15T06:46:08;10.50;99.90
2851;DHT22;1433;49.976;8.342;2024-02-15T06:48:35;10.30;99.90
2851;DHT22;1433;49.976;8.342;2024-02-15T06:51:00;10.30;99.90
2851;DHT22;1433;49.976;8.342;2024-02-15T06:53:26;10.30;99.90
2851;DHT22;1433;49.976;8.342;2024-02-15T06:55:52;10.30;99.90
2851;DHT22;1433;49.976;8.342;2024-02-15T06:58:18;10.50;99.90
2851;DHT22;1433;49.976;8.342;2024-02-15T07:00:44;10.30;99.90
2851;DHT22;1433;49.976;8.342;2024-02-15T07:03:10;10.30;99.90
2851;DHT22;1433;49.976;8.342;2024-02-15T07:05:38;10.20;99.90
2851;DHT22;1433;49.976;8.342;2024-02-15T07:08:05;10.20;99.90
2851;DHT22;1433;49.976;8.342;2024-02-15T07:10:31;10.20;99.90
2851;DHT22;1433;49.976;8.342;2024-02-15T07:12:57;10.30;99.90
2851;DHT22;1433;49.976;8.342;2024-02-15T07:15:23;10.30;99.90
2851;DHT22;1433;49.976;8.342;2024-02-15T07:17:49;10.30;99.90
2851;DHT22;1433;49.976;8.342;2024-02-15T07:20:15;10.30;99.90
2851;DHT22;1433;49.976;8.342;2024-02-15T07:22:45;10.30;99.90
2851;DHT22;1433;49.976;8.342;2024-02-15T07:25:11;10.30;99.90
2851;DHT22;1433;49.976;8.342;2024-02-15T07:27:37;10.40;99.90
2851;DHT22;1433;49.976;8.342;2024-02-15T07:30:04;10.60;99.90
2851;DHT22;1433;49.976;8.342;2024-02-15T07:32:31;10.40;99.90
2851;DHT22;1433;49.976;8.342;2024-02-15T07:35:00;10.30;99.90
2851;DHT22;1433;49.976;8.342;2024-02-15T07:37:26;10.30;99.90
2851;DHT22;1433;49.976;8.342;2024-02-15T07:39:52;10.60;99.90
2851;DHT22;1433;49.976;8.342;2024-02-15T07:42:18;10.70;99.90
2851;DHT22;1433;49.976;8.342;2024-02-15T07:44:44;10.50;99.90
2851;DHT22;1433;49.976;8.342;2024-02-15T07:47:12;10.50;99.90
2851;DHT22;1433;49.976;8.342;2024-02-15T07:49:37;10.70;99.90
2851;DHT22;1433;49.976;8.342;2024-02-15T07:52:04;10.80;99.90
2851;DHT22;1433;49.976;8.342;2024-02-15T07:54:30;10.80;99.90
2851;DHT22;1433;49.976;8.342;2024-02-15T07:56:56;10.90;99.90
2851;DHT22;1433;49.976;8.342;2024-02-15T07:59:23;11.10;99.90
2851;DHT22;1433;49.976;8.342;2024-02-15T08:01:49;10.80;99.90
2851;DHT22;1433;49.976;8.342;2024-02-15T08:04:19;11.10;99.90
2851;DHT22;1433;49.976;8.342;2024-02-15T08:06:45;11.20;99.90
2851;DHT22;1433;49.976;8.342;2024-02-15T08:09:11;10.90;99.90
2851;DHT22;1433;49.976;8.342;2024-02-15T08:11:42;11.00;99.90
2851;DHT22;1433;49.976;8.342;2024-02-15T08:14:08;11.00;99.90
2851;DHT22;1433;49.976;8.342;2024-02-15T08:16:37;11.20;99.90
2851;DHT22;1433;49.976;8.342;2024-02-15T08:19:06;11.20;99.90
2851;DHT22;1433;49.976;8.342;2024-02-15T08:21:33;11.30;99.90
2851;DHT22;1433;49.976;8.342;2024-02-15T08:24:02;11.40;99.90
2851;DHT22;1433;49.976;8.342;2024-02-15T08:26:38;11.60;99.90
2851;DHT22;1433;49.976;8.342;2024-02-15T08:29:04;11.40;99.90
2851;DHT22;1433;49.976;8.342;2024-02-15T08:31:31;11.50;99.90
2851;DHT22;1433;49.976;8.342;2024-02-15T08:33:58;11.60;99.90
2851;DHT22;1433;49.976;8.342;2024-02-15T08:36:24;11.70;99.90
2851;DHT22;1433;49.976;8.342;2024-02-15T08:38:50;11.70;99.90
2851;DHT22;1433;49.976;8.342;2024-02-15T08:41:16;11.70;99.90
2851;DHT22;1433;49.976;8.342;2024-02-15T08:43:44;12.10;99.90
2851;DHT22;1433;49.976;8.342;2024-02-15T08:46:11;12.10;99.90
2851;DHT22;1433;49.976;8.342;2024-02-15T08:48:38;12.00;99.90
2851;DHT22;1433;49.976;8.342;2024-02-15T08:51:04;12.10;99.90
2851;DHT22;1433;49.976;8.342;2024-02-15T08:53:31;12.00;99.90
2851;DHT22;1433;49.976;8.342;2024-02-15T08:55:57;12.10;99.90
2851;DHT22;1433;49.976;8.342;2024-02-15T08:58:23;12.00;99.90
2851;DHT22;1433;49.976;8.342;2024-02-15T09:00:49;12.10;99.90
2851;DHT22;1433;49.976;8.342;2024-02-15T09:03:15;12.30;99.90
2851;DHT22;1433;49.976;8.342;2024-02-15T09:05:41;12.20;99.90
2851;DHT22;1433;49.976;8.342;2024-02-15T09:08:07;12.20;99.90
2851;DHT22;1433;49.976;8.342;2024-02-15T09:10:33;12.30;99.90
2851;DHT22;1433;49.976;8.342;2024-02-15T09:12:58;12.40;99.90
2851;DHT22;1433;49.976;8.342;2024-02-15T09:15:24;12.50;99.90
2851;DHT22;1433;49.976;8.342;2024-02-15T09:17:50;12.60;99.90
2851;DHT22;1433;49.976;8.342;2024-02-15T09:20:17;12.60;99.90
2851;DHT22;1433;49.976;8.342;2024-02-15T09:25:15;13.10;99.90
2851;DHT22;1433;49.976;8.342;2024-02-15T09:27:41;12.90;99.90
2851;DHT22;1433;49.976;8.342;2024-02-15T09:30:07;13.00;99.90
2851;DHT22;1433;49.976;8.342;2024-02-15T09:32:44;13.10;99.90
2851;DHT22;1433;49.976;8.342;2024-02-15T09:35:11;13.10;99.90
2851;DHT22;1433;49.976;8.342;2024-02-15T09:37:38;13.20;99.90
2851;DHT22;1433;49.976;8.342;2024-02-15T09:40:10;13.20;99.90
2851;DHT22;1433;49.976;8.342;2024-02-15T09:42:37;13.10;99.90
2851;DHT22;1433;49.976;8.342;2024-02-15T09:45:08;13.20;99.90
2851;DHT22;1433;49.976;8.342;2024-02-15T09:47:37;13.20;99.90
2851;DHT22;1433;49.976;8.342;2024-02-15T09:50:10;13.50;99.90
2851;DHT22;1433;49.976;8.342;2024-02-15T09:52:52;13.20;99.90
2851;DHT22;1433;49.976;8.342;2024-02-15T09:55:20;13.20;99.90
2851;DHT22;1433;49.976;8.342;2024-02-15T09:57:50;13.20;99.90
2851;DHT22;1433;49.976;8.342;2024-02-15T10:00:16;13.30;99.90
2851;DHT22;1433;49.976;8.342;2024-02-15T10:02:50;13.50;99.90
2851;DHT22;1433;49.976;8.342;2024-02-15T10:05:18;13.80;10.00
2851;DHT22;1433;49.976;8.342;2024-02-15T10:07:45;13.90;1.00
2851;DHT22;1433;49.976;8.342;2024-02-15T10:10:19;14.10;1.00
2851;DHT22;1433;49.976;8.342;2024-02-15T10:12:46;14.20;1.00
2851;DHT22;1433;49.976;8.342;2024-02-15T10:15:35;14.40;1.00
2851;DHT22;1433;49.976;8.342;2024-02-15T10:18:09;14.70;1.00
2851;DHT22;1433;49.976;8.342;2024-02-15T10:20:39;14.80;1.00
2851;DHT22;1433;49.976;8.342;2024-02-15T10:23:14;15.10;1.00
2851;DHT22;1433;49.976;8.342;2024-02-15T10:25:43;15.40;99.90
2851;DHT22;1433;49.976;8.342;2024-02-15T10:28:10;15.60;1.00
2851;DHT22;1433;49.976;8.342;2024-02-15T10:30:38;15.80;99.90
2851;DHT22;1433;49.976;8.342;2024-02-15T10:33:05;15.90;1.00
2851;DHT22;1433;49.976;8.342;2024-02-15T10:35:31;16.40;99.90
2851;DHT22;1433;49.976;8.342;2024-02-15T10:40:30;16.60;99.90
2851;DHT22;1433;49.976;8.342;2024-02-15T10:42:58;16.50;45.90
2851;DHT22;1433;49.976;8.342;2024-02-15T10:45:25;16.50;99.90
2851;DHT22;1433;49.976;8.342;2024-02-15T10:47:51;16.30;1.00
2851;DHT22;1433;49.976;8.342;2024-02-15T10:50:17;16.10;1.00
2851;DHT22;1433;49.976;8.342;2024-02-15T10:52:59;16.30;1.00
2851;DHT22;1433;49.976;8.342;2024-02-15T10:55:38;16.40;1.00
2851;DHT22;1433;49.976;8.342;2024-02-15T10:58:07;16.30;1.00
2851;DHT22;1433;49.976;8.342;2024-02-15T11:00:34;16.30;1.00
2851;DHT22;1433;49.976;8.342;2024-02-15T11:03:04;16.20;1.00
2851;DHT22;1433;49.976;8.342;2024-02-15T11:05:37;16.10;1.00
2851;DHT22;1433;49.976;8.342;2024-02-15T11:08:07;16.00;1.00
2851;DHT22;1433;49.976;8.342;2024-02-15T11:10:37;15.90;99.90
2851;DHT22;1433;49.976;8.342;2024-02-15T11:13:03;16.10;1.00
2851;DHT22;1433;49.976;8.342;2024-02-15T11:18:02;16.60;1.00
2851;DHT22;1433;49.976;8.342;2024-02-15T11:23:02;17.10;1.00
2851;DHT22;1433;49.976;8.342;2024-02-15T11:25:33;17.30;1.00
2851;DHT22;1433;49.976;8.342;2024-02-15T11:30:53;17.30;99.90
2851;DHT22;1433;49.976;8.342;2024-02-15T11:36:06;16.60;1.00
2851;DHT22;1433;49.976;8.342;2024-02-15T11:38:32;16.40;99.90
2851;DHT22;1433;49.976;8.342;2024-02-15T11:41:08;16.30;99.90
2851;DHT22;1433;49.976;8.342;2024-02-15T11:46:22;16.60;1.00
2851;DHT22;1433;49.976;8.342;2024-02-15T11:48:51;16.50;1.00
2851;DHT22;1433;49.976;8.342;2024-02-15T11:51:33;16.50;1.00
2851;DHT22;1433;49.976;8.342;2024-02-15T11:59:09;16.80;1.00
2851;DHT22;1433;49.976;8.342;2024-02-15T12:01:44;17.10;99.90
2851;DHT22;1433;49.976;8.342;2024-02-15T12:04:29;17.20;99.90
2851;DHT22;1433;49.976;8.342;2024-02-15T12:07:15;17.40;99.90
2851;DHT22;1433;49.976;8.342;2024-02-15T12:09:59;17.40;99.90
2851;DHT22;1433;49.976;8.342;2024-02-15T12:12:56;17.60;99.90
2851;DHT22;1433;49.976;8.342;2024-02-15T12:15:40;17.50;11.90
2851;DHT22;1433;49.976;8.342;2024-02-15T12:18:25;17.50;1.00
2851;DHT22;1433;49.976;8.342;2024-02-15T12:21:13;17.30;1.00
2851;DHT22;1433;49.976;8.342;2024-02-15T12:23:40;17.30;1.00
2851;DHT22;1433;49.976;8.342;2024-02-15T12:26:07;17.10;1.00
2851;DHT22;1433;49.976;8.342;2024-02-15T12:28:35;17.00;1.00
2851;DHT22;1433;49.976;8.342;2024-02-15T12:31:02;16.90;1.00
2851;DHT22;1433;49.976;8.342;2024-02-15T12:33:28;16.90;1.00
2851;DHT22;1433;49.976;8.342;2024-02-15T12:36:07;17.10;1.00
2851;DHT22;1433;49.976;8.342;2024-02-15T12:38:34;17.20;1.00
2851;DHT22;1433;49.976;8.342;2024-02-15T12:41:03;17.20;1.00
2851;DHT22;1433;49.976;8.342;2024-02-15T12:43:30;17.20;1.00
2851;DHT22;1433;49.976;8.342;2024-02-15T12:45:55;17.60;1.00
2851;DHT22;1433;49.976;8.342;2024-02-15T12:48:24;17.60;1.00
2851;DHT22;1433;49.976;8.342;2024-02-15T12:50:50;17.50;1.00
2851;DHT22;1433;49.976;8.342;2024-02-15T12:53:22;17.40;1.00
2851;DHT22;1433;49.976;8.342;2024-02-15T12:55:55;17.10;1.00
2851;DHT22;1433;49.976;8.342;2024-02-15T12:58:21;17.10;1.00
2851;DHT22;1433;49.976;8.342;2024-02-15T13:00:50;17.10;1.00
2851;DHT22;1433;49.976;8.342;2024-02-15T13:03:15;16.90;1.00
2851;DHT22;1433;49.976;8.342;2024-02-15T13:05:43;16.80;1.00
2851;DHT22;1433;49.976;8.342;2024-02-15T13:08:09;16.90;1.00
2851;DHT22;1433;49.976;8.342;2024-02-15T13:10:43;17.10;1.00
2851;DHT22;1433;49.976;8.342;2024-02-15T13:13:08;17.20;1.00
2851;DHT22;1433;49.976;8.342;2024-02-15T13:15:39;17.20;1.00
2851;DHT22;1433;49.976;8.342;2024-02-15T13:18:06;17.30;1.00
2851;DHT22;1433;49.976;8.342;2024-02-15T13:20:35;17.20;1.00
2851;DHT22;1433;49.976;8.342;2024-02-15T13:23:09;17.20;1.00
2851;DHT22;1433;49.976;8.342;2024-02-15T13:25:41;17.20;1.00
2851;DHT22;1433;49.976;8.342;2024-02-15T13:28:09;17.20;1.00
2851;DHT22;1433;49.976;8.342;2024-02-15T13:30:39;17.20;1.00
2851;DHT22;1433;49.976;8.342;2024-02-15T13:33:06;17.20;1.00
2851;DHT22;1433;49.976;8.342;2024-02-15T13:35:32;17.10;1.00
2851;DHT22;1433;49.976;8.342;2024-02-15T13:37:58;17.10;1.00
2851;DHT22;1433;49.976;8.342;2024-02-15T13:40:25;17.00;1.00
2851;DHT22;1433;49.976;8.342;2024-02-15T13:42:57;17.20;1.00
2851;DHT22;1433;49.976;8.342;2024-02-15T13:45:41;17.20;1.00
2851;DHT22;1433;49.976;8.342;2024-02-15T13:48:08;17.20;1.00
2851;DHT22;1433;49.976;8.342;2024-02-15T13:50:34;16.80;1.00
2851;DHT22;1433;49.976;8.342;2024-02-15T13:53:00;17.20;1.00
2851;DHT22;1433;49.976;8.342;2024-02-15T13:55:27;17.10;1.00
2851;DHT22;1433;49.976;8.342;2024-02-15T13:57:54;17.00;1.00
2851;DHT22;1433;49.976;8.342;2024-02-15T14:00:24;16.90;1.00
2851;DHT22;1433;49.976;8.342;2024-02-15T14:02:59;17.00;1.00
2851;DHT22;1433;49.976;8.342;2024-02-15T14:05:27;17.10;99.90
2851;DHT22;1433;49.976;8.342;2024-02-15T14:08:00;16.80;1.00
2851;DHT22;1433;49.976;8.342;2024-02-15T14:10:28;16.80;1.00
2851;DHT22;1433;49.976;8.342;2024-02-15T14:12:54;17.00;1.00
2851;DHT22;1433;49.976;8.342;2024-02-15T14:15:21;17.00;90.00
2851;DHT22;1433;49.976;8.342;2024-02-15T14:17:47;16.80;1.00
2851;DHT22;1433;49.976;8.342;2024-02-15T14:20:14;16.80;1.00
2851;DHT22;1433;49.976;8.342;2024-02-15T14:22:50;16.70;1.00
2851;DHT22;1433;49.976;8.342;2024-02-15T14:25:24;16.80;1.00
2851;DHT22;1433;49.976;8.342;2024-02-15T14:27:57;16.70;1.00
2851;DHT22;1433;49.976;8.342;2024-02-15T14:30:24;16.60;1.00
2851;DHT22;1433;49.976;8.342;2024-02-15T14:33:08;16.60;1.00
2851;DHT22;1433;49.976;8.342;2024-02-15T14:35:38;16.70;1.00
2851;DHT22;1433;49.976;8.342;2024-02-15T14:38:09;16.60;1.00
2851;DHT22;1433;49.976;8.342;2024-02-15T14:40:38;16.50;1.00
2851;DHT22;1433;49.976;8.342;2024-02-15T14:43:04;16.50;1.00
2851;DHT22;1433;49.976;8.342;2024-02-15T14:45:33;16.50;1.00
2851;DHT22;1433;49.976;8.342;2024-02-15T14:48:00;16.60;1.00
2851;DHT22;1433;49.976;8.342;2024-02-15T14:50:26;16.40;1.00
2851;DHT22;1433;49.976;8.342;2024-02-15T14:52:52;16.30;1.00
2851;DHT22;1433;49.976;8.342;2024-02-15T14:55:19;16.30;15.90
2851;DHT22;1433;49.976;8.342;2024-02-15T14:57:45;16.00;99.90
2851;DHT22;1433;49.976;8.342;2024-02-15T15:00:12;16.30;99.90
2851;DHT22;1433;49.976;8.342;2024-02-15T15:02:41;16.30;99.90
2851;DHT22;1433;49.976;8.342;2024-02-15T15:05:09;16.30;1.00
2851;DHT22;1433;49.976;8.342;2024-02-15T15:08:00;16.50;1.00
2851;DHT22;1433;49.976;8.342;2024-02-15T15:10:45;16.30;26.30
2851;DHT22;1433;49.976;8.342;2024-02-15T15:13:30;16.20;99.90
2851;DHT22;1433;49.976;8.342;2024-02-15T15:15:57;16.20;99.90
2851;DHT22;1433;49.976;8.342;2024-02-15T15:18:22;16.20;99.90
2851;DHT22;1433;49.976;8.342;2024-02-15T15:20:48;16.30;99.90
2851;DHT22;1433;49.976;8.342;2024-02-15T15:23:15;16.10;1.00
2851;DHT22;1433;49.976;8.342;2024-02-15T15:25:41;16.20;1.00
2851;DHT22;1433;49.976;8.342;2024-02-15T15:28:07;16.00;1.00
2851;DHT22;1433;49.976;8.342;2024-02-15T15:33:46;15.70;1.00
2851;DHT22;1433;49.976;8.342;2024-02-15T15:36:14;15.70;1.00
2851;DHT22;1433;49.976;8.342;2024-02-15T15:38:42;15.60;1.00
2851;DHT22;1433;49.976;8.342;2024-02-15T15:41:08;15.60;1.00
2851;DHT22;1433;49.976;8.342;2024-02-15T15:43:34;15.80;1.00
2851;DHT22;1433;49.976;8.342;2024-02-15T15:46:00;15.70;1.00
2851;DHT22;1433;49.976;8.342;2024-02-15T15:48:26;15.60;1.00
2851;DHT22;1433;49.976;8.342;2024-02-15T15:50:52;15.50;99.90
2851;DHT22;1433;49.976;8.342;2024-02-15T15:53:19;15.50;99.90
2851;DHT22;1433;49.976;8.342;2024-02-15T15:55:45;15.50;1.00
2851;DHT22;1433;49.976;8.342;2024-02-15T15:58:12;15.40;1.00
2851;DHT22;1433;49.976;8.342;2024-02-15T16:00:37;15.50;1.00
2851;DHT22;1433;49.976;8.342;2024-02-15T16:03:06;15.30;1.00
2851;DHT22;1433;49.976;8.342;2024-02-15T16:05:31;15.20;99.90
2851;DHT22;1433;49.976;8.342;2024-02-15T16:07:57;15.10;99.90
2851;DHT22;1433;49.976;8.342;2024-02-15T16:10:23;15.00;99.90
2851;DHT22;1433;49.976;8.342;2024-02-15T16:12:51;15.00;1.00
2851;DHT22;1433;49.976;8.342;2024-02-15T16:15:21;14.90;1.00
2851;DHT22;1433;49.976;8.342;2024-02-15T16:17:47;14.80;1.00
2851;DHT22;1433;49.976;8.342;2024-02-15T16:20:13;14.80;1.00
2851;DHT22;1433;49.976;8.342;2024-02-15T16:22:40;14.70;1.00
2851;DHT22;1433;49.976;8.342;2024-02-15T16:25:07;14.90;1.00
2851;DHT22;1433;49.976;8.342;2024-02-15T16:30:04;14.60;73.40
2851;DHT22;1433;49.976;8.342;2024-02-15T16:32:30;14.50;99.90
2851;DHT22;1433;49.976;8.342;2024-02-15T16:35:01;14.40;99.90
2851;DHT22;1433;49.976;8.342;2024-02-15T16:37:29;14.40;1.00
2851;DHT22;1433;49.976;8.342;2024-02-15T16:39:56;14.00;99.90
2851;DHT22;1433;49.976;8.342;2024-02-15T16:42:22;13.90;1.00
2851;DHT22;1433;49.976;8.342;2024-02-15T16:44:47;13.60;1.00
2851;DHT22;1433;49.976;8.342;2024-02-15T16:47:14;13.80;1.00